createdAt,value
2017-10-10T00:02:05.738Z,13.53
2017-10-10T00:04:33.218Z,14.03
2017-10-10T00:07:00.680Z,11.90
2017-10-10T00:09:28.139Z,12.70
2017-10-10T00:11:55.622Z,12.97
2017-10-10T00:14:23.090Z,14.47
2017-10-10T00:16:50.547Z,14.20
2017-10-10T00:19:18.022Z,14.30
2017-10-10T00:21:45.511Z,15.53
2017-10-10T00:24:12.974Z,15.70
2017-10-10T00:26:40.436Z,13.20
2017-10-10T00:29:07.914Z,14.20
2017-10-10T00:31:35.370Z,13.20
2017-10-10T00:34:02.830Z,14.43
2017-10-10T00:36:30.312Z,14.80
2017-10-10T00:38:57.771Z,14.30
2017-10-10T00:41:25.236Z,14.17
2017-10-10T00:43:52.722Z,14.10
2017-10-10T00:46:20.192Z,14.60
2017-10-10T00:48:47.658Z,12.90
2017-10-10T00:51:15.146Z,13.33
2017-10-10T00:53:42.599Z,11.30
2017-10-10T00:56:10.096Z,11.73
2017-10-10T00:58:37.547Z,10.40
2017-10-10T01:01:05.002Z,11.67
2017-10-10T01:03:32.483Z,11.47
2017-10-10T01:05:59.951Z,10.63
2017-10-10T01:08:27.402Z,11.77
2017-10-10T01:10:54.891Z,11.37
2017-10-10T01:13:22.354Z,12.00
2017-10-10T01:15:49.813Z,11.87
2017-10-10T01:18:17.298Z,11.63
2017-10-10T01:20:44.755Z,11.17
2017-10-10T01:23:12.215Z,11.20
2017-10-10T01:25:39.718Z,10.17
2017-10-10T01:28:07.180Z,10.80
2017-10-10T01:30:34.639Z,11.70
2017-10-10T01:33:02.119Z,10.43
2017-10-10T01:35:29.579Z,11.00
2017-10-10T01:37:57.038Z,11.40
2017-10-10T01:40:24.523Z,11.03
2017-10-10T01:42:51.978Z,12.10
2017-10-10T01:45:19.459Z,10.83
2017-10-10T01:47:46.917Z,11.13
2017-10-10T01:50:14.380Z,11.07
2017-10-10T01:52:41.868Z,11.90
2017-10-10T01:55:09.321Z,11.63
2017-10-10T01:57:36.776Z,10.80
2017-10-10T02:00:04.259Z,12.07
2017-10-10T02:02:31.714Z,12.90
2017-10-10T02:04:59.171Z,10.93
2017-10-10T02:07:26.686Z,12.20
2017-10-10T02:09:54.142Z,12.70
2017-10-10T02:12:21.606Z,12.40
2017-10-10T02:14:49.079Z,11.50
2017-10-10T02:17:16.531Z,11.37
2017-10-10T02:19:43.973Z,10.50
2017-10-10T02:22:11.450Z,8.87
2017-10-10T02:24:38.907Z,9.80
2017-10-10T02:27:06.387Z,9.90
2017-10-10T02:29:33.859Z,8.67
2017-10-10T02:32:01.318Z,10.67
2017-10-10T02:34:28.795Z,10.70
2017-10-10T02:36:56.260Z,11.33
2017-10-10T02:39:23.754Z,10.10
2017-10-10T02:41:51.214Z,11.53
2017-10-10T02:44:18.670Z,10.90
2017-10-10T02:46:46.152Z,10.30
2017-10-10T02:49:13.607Z,10.17
2017-10-10T02:51:41.074Z,10.07
2017-10-10T02:54:08.558Z,10.50
2017-10-10T02:56:36.015Z,9.33
2017-10-10T02:59:03.488Z,9.20
2017-10-10T03:01:30.971Z,10.57
2017-10-10T03:03:58.434Z,10.60
2017-10-10T03:06:25.899Z,10.40
2017-10-10T03:08:53.374Z,10.30
2017-10-10T03:11:20.888Z,10.83
2017-10-10T03:13:48.353Z,10.47
2017-10-10T03:16:15.850Z,10.37
2017-10-10T03:18:43.331Z,10.30
2017-10-10T03:21:10.783Z,10.07
2017-10-10T03:23:38.259Z,9.40
2017-10-10T03:26:05.713Z,10.97
2017-10-10T03:28:33.171Z,10.43
2017-10-10T03:31:00.656Z,10.87
2017-10-10T03:33:28.118Z,11.17
2017-10-10T03:35:55.570Z,11.90
2017-10-10T03:38:23.887Z,10.03
2017-10-10T03:40:51.344Z,11.13
2017-10-10T03:43:18.823Z,10.47
2017-10-10T03:45:46.302Z,10.23
2017-10-10T03:48:13.754Z,10.33
2017-10-10T03:50:41.233Z,10.73
2017-10-10T03:53:08.691Z,11.57
2017-10-10T03:55:36.155Z,11.73
2017-10-10T03:58:03.635Z,11.00
2017-10-10T04:00:31.097Z,10.07
2017-10-10T04:02:58.554Z,10.50
2017-10-10T04:05:26.026Z,11.00
2017-10-10T04:07:53.482Z,10.57
2017-10-10T04:10:20.958Z,11.37
2017-10-10T04:12:48.419Z,11.43
2017-10-10T04:15:15.880Z,10.20
2017-10-10T04:17:43.358Z,11.87
2017-10-10T04:20:10.810Z,11.30
2017-10-10T04:22:38.279Z,11.20
2017-10-10T04:25:05.755Z,12.00
2017-10-10T04:27:33.220Z,12.33
2017-10-10T04:30:00.676Z,11.47
2017-10-10T04:32:28.155Z,11.67
2017-10-10T04:34:55.606Z,11.23
2017-10-10T04:37:23.067Z,10.63
2017-10-10T04:39:50.540Z,11.90
2017-10-10T04:42:17.990Z,10.93
2017-10-10T04:44:45.471Z,11.00
2017-10-10T04:47:12.931Z,11.43
2017-10-10T04:49:40.388Z,11.57
2017-10-10T04:52:07.867Z,12.40
2017-10-10T04:54:35.322Z,12.27
2017-10-10T04:57:02.803Z,10.93
2017-10-10T04:59:30.263Z,11.30
2017-10-10T05:01:57.718Z,11.30
2017-10-10T05:04:25.194Z,11.40
2017-10-10T05:06:52.650Z,10.43
2017-10-10T05:09:20.110Z,11.13
2017-10-10T05:11:47.591Z,11.23
2017-10-10T05:14:15.051Z,11.73
2017-10-10T05:16:42.509Z,11.20
2017-10-10T05:19:09.994Z,10.97
2017-10-10T05:21:37.447Z,11.03
2017-10-10T05:24:04.910Z,10.40
2017-10-10T05:26:32.388Z,10.63
2017-10-10T05:28:59.835Z,9.33
2017-10-10T05:31:27.315Z,10.50
2017-10-10T05:33:54.777Z,10.43
2017-10-10T05:36:22.231Z,9.23
2017-10-10T05:38:49.711Z,9.63
2017-10-10T05:41:17.171Z,11.43
2017-10-10T05:43:44.625Z,9.43
2017-10-10T05:46:12.099Z,9.17
2017-10-10T05:48:39.554Z,9.80
2017-10-10T05:51:07.010Z,8.43
2017-10-10T05:53:34.478Z,9.27
2017-10-10T05:56:01.927Z,8.50
2017-10-10T05:58:29.411Z,9.50
2017-10-10T06:00:56.911Z,8.27
2017-10-10T06:03:24.367Z,9.60
2017-10-10T06:05:51.873Z,9.40
2017-10-10T06:08:19.750Z,8.97
2017-10-10T06:10:47.247Z,9.70
2017-10-10T06:13:14.726Z,8.63
2017-10-10T06:15:42.182Z,8.20
2017-10-10T06:18:09.662Z,8.80
2017-10-10T06:20:37.167Z,10.13
2017-10-10T06:23:04.620Z,9.00
2017-10-10T06:25:32.106Z,11.03
2017-10-10T06:27:59.554Z,9.33
2017-10-10T06:30:27.104Z,10.33
2017-10-10T06:32:54.672Z,9.50
2017-10-10T06:35:22.155Z,10.50
2017-10-10T06:37:49.684Z,9.90
2017-10-10T06:40:17.174Z,10.10
2017-10-10T06:42:44.633Z,10.90
2017-10-10T06:45:12.087Z,12.60
2017-10-10T06:47:39.566Z,10.07
2017-10-10T06:50:07.028Z,9.70
2017-10-10T06:52:34.489Z,10.53
2017-10-10T06:55:01.931Z,10.23
2017-10-10T06:57:29.463Z,9.83
2017-10-10T06:59:56.914Z,9.90
2017-10-10T07:02:24.380Z,9.40
2017-10-10T07:04:51.886Z,9.60
2017-10-10T07:07:19.352Z,9.93
2017-10-10T07:09:46.819Z,11.57
2017-10-10T07:12:14.299Z,9.13
2017-10-10T07:14:41.763Z,9.97
2017-10-10T07:17:09.225Z,9.50
2017-10-10T07:19:36.694Z,10.90
2017-10-10T07:22:04.147Z,10.40
2017-10-10T07:24:31.623Z,9.70
2017-10-10T07:26:59.085Z,10.07
2017-10-10T07:29:26.539Z,9.50
2017-10-10T07:31:54.022Z,10.60
2017-10-10T07:34:21.475Z,11.30
2017-10-10T07:36:48.926Z,12.23
2017-10-10T07:39:16.406Z,9.53
2017-10-10T07:41:43.886Z,11.17
2017-10-10T07:44:11.338Z,11.20
2017-10-10T07:46:38.822Z,10.67
2017-10-10T07:49:06.279Z,10.83
2017-10-10T07:51:33.745Z,9.30
2017-10-10T07:54:01.299Z,10.10
2017-10-10T07:56:28.769Z,9.80
2017-10-10T07:58:56.251Z,9.03
2017-10-10T08:01:23.702Z,9.13
2017-10-10T08:03:51.147Z,8.77
2017-10-10T08:06:18.622Z,10.03
2017-10-10T08:08:46.075Z,9.20
2017-10-10T08:11:13.556Z,10.00
2017-10-10T08:13:41.014Z,9.13
2017-10-10T08:16:08.466Z,9.27
2017-10-10T08:18:35.980Z,8.40
2017-10-10T08:21:03.435Z,8.43
2017-10-10T08:23:30.915Z,9.30
2017-10-10T08:26:06.175Z,9.33
2017-10-10T08:28:33.645Z,8.17
2017-10-10T08:31:01.130Z,7.67
2017-10-10T08:33:28.610Z,8.37
2017-10-10T08:35:56.061Z,7.90
2017-10-10T08:38:23.511Z,8.07
2017-10-10T08:40:51.022Z,7.63
2017-10-10T08:43:18.469Z,8.30
2017-10-10T08:45:45.923Z,8.70
2017-10-10T08:48:13.398Z,8.30
2017-10-10T08:50:40.874Z,8.47
2017-10-10T08:53:08.314Z,8.10
2017-10-10T08:55:35.767Z,9.07
2017-10-10T08:58:03.243Z,7.80
2017-10-10T09:00:30.697Z,8.87
2017-10-10T09:02:58.178Z,8.20
2017-10-10T09:05:25.630Z,8.57
2017-10-10T09:07:53.079Z,8.00
2017-10-10T09:10:20.550Z,8.97
2017-10-10T09:12:48.009Z,8.33
2017-10-10T09:15:15.463Z,9.80
2017-10-10T09:17:42.938Z,9.27
2017-10-10T09:20:10.386Z,6.80
2017-10-10T09:22:37.870Z,8.77
2017-10-10T09:25:05.323Z,9.77
2017-10-10T09:27:32.782Z,8.90
2017-10-10T09:30:00.262Z,8.60
2017-10-10T09:32:27.719Z,8.80
2017-10-10T09:34:55.179Z,8.93
2017-10-10T09:37:22.661Z,8.27
2017-10-10T09:39:50.123Z,8.90
2017-10-10T09:42:17.601Z,8.53
2017-10-10T09:44:45.060Z,9.30
2017-10-10T09:47:12.511Z,8.93
2017-10-10T09:49:39.995Z,9.67
2017-10-10T09:52:07.449Z,8.80
2017-10-10T09:54:34.895Z,8.50
2017-10-10T09:57:02.386Z,8.17
2017-10-10T09:59:29.840Z,8.47
2017-10-10T10:01:57.297Z,8.40
2017-10-10T10:04:24.771Z,8.10
2017-10-10T10:06:52.241Z,9.20
2017-10-10T10:09:19.714Z,8.10
2017-10-10T10:11:47.188Z,7.47
2017-10-10T10:14:14.655Z,8.57
2017-10-10T10:16:42.106Z,9.27
2017-10-10T10:19:09.586Z,8.07
2017-10-10T10:21:37.043Z,6.90
2017-10-10T10:24:04.535Z,9.30
2017-10-10T10:26:32.003Z,8.90
2017-10-10T10:28:59.454Z,7.90
2017-10-10T10:31:26.942Z,7.63
2017-10-10T10:33:54.394Z,7.80
2017-10-10T10:36:21.871Z,7.10
2017-10-10T10:38:49.331Z,8.57
2017-10-10T10:41:16.785Z,7.37
2017-10-10T10:43:44.262Z,7.07
2017-10-10T10:46:11.719Z,7.60
2017-10-10T10:48:39.171Z,7.40
2017-10-10T10:51:06.642Z,7.43
2017-10-10T10:53:34.094Z,7.50
2017-10-10T10:56:01.570Z,6.93
2017-10-10T10:58:29.023Z,6.60
2017-10-10T11:00:56.473Z,6.40
2017-10-10T11:03:23.950Z,7.13
2017-10-10T11:05:51.406Z,6.50
2017-10-10T11:08:18.878Z,5.27
2017-10-10T11:10:46.326Z,5.73
2017-10-10T11:13:13.783Z,5.00
2017-10-10T11:15:41.258Z,5.17
2017-10-10T11:18:08.719Z,5.73
2017-10-10T11:20:36.171Z,4.90
2017-10-10T11:23:03.651Z,4.43
2017-10-10T11:25:31.108Z,5.57
2017-10-10T11:27:58.603Z,5.40
2017-10-10T11:30:26.060Z,5.10
2017-10-10T11:32:53.512Z,6.10
2017-10-10T11:35:20.982Z,5.10
2017-10-10T11:37:48.435Z,4.50
2017-10-10T11:40:15.888Z,5.13
2017-10-10T11:42:43.362Z,5.17
2017-10-10T11:45:10.811Z,4.90
2017-10-10T11:47:38.258Z,5.57
2017-10-10T11:50:05.771Z,5.20
2017-10-10T11:52:33.219Z,5.40
2017-10-10T11:55:00.676Z,5.30
2017-10-10T11:57:28.147Z,5.47
2017-10-10T11:59:55.595Z,5.30
2017-10-10T12:02:23.046Z,5.00
2017-10-10T12:04:50.516Z,5.30
2017-10-10T12:07:17.963Z,5.50
2017-10-10T12:09:45.433Z,6.10
2017-10-10T12:12:12.880Z,5.87
2017-10-10T12:14:40.341Z,6.20
2017-10-10T12:17:07.818Z,6.37
2017-10-10T12:19:35.277Z,5.93
2017-10-10T12:22:02.739Z,6.53
2017-10-10T12:24:30.227Z,5.13
2017-10-10T12:26:57.686Z,6.60
2017-10-10T12:29:25.136Z,5.30
2017-10-10T12:31:52.611Z,6.13
2017-10-10T12:34:20.091Z,6.00
2017-10-10T12:36:47.541Z,6.53
2017-10-10T12:39:15.015Z,6.57
2017-10-10T12:41:42.472Z,6.20
2017-10-10T12:44:09.919Z,6.40
2017-10-10T12:46:37.394Z,6.70
2017-10-10T12:49:04.846Z,6.03
2017-10-10T12:51:32.338Z,7.17
2017-10-10T12:53:59.803Z,6.13
2017-10-10T12:56:27.264Z,6.47
2017-10-10T12:58:54.751Z,6.00
2017-10-10T13:01:22.211Z,7.43
2017-10-10T13:03:49.703Z,7.40
2017-10-10T13:06:17.170Z,7.20
2017-10-10T13:08:44.620Z,6.53
2017-10-10T13:11:12.106Z,7.00
2017-10-10T13:13:39.562Z,6.43
2017-10-10T13:16:07.015Z,6.30
2017-10-10T13:18:34.502Z,6.00
2017-10-10T13:21:01.963Z,6.40
2017-10-10T13:23:29.442Z,8.67
2017-10-10T13:25:56.928Z,6.70
2017-10-10T13:28:24.379Z,6.20
2017-10-10T13:30:51.833Z,6.77
2017-10-10T13:33:19.312Z,6.63
2017-10-10T13:35:46.766Z,6.47
2017-10-10T13:38:14.218Z,6.30
2017-10-10T13:40:41.698Z,6.40
2017-10-10T13:43:09.166Z,6.40
2017-10-10T13:45:36.626Z,6.90
2017-10-10T13:48:04.106Z,6.90
2017-10-10T13:50:31.571Z,6.10
2017-10-10T13:52:59.070Z,6.10
2017-10-10T13:55:26.526Z,6.13
2017-10-10T13:57:53.983Z,6.60
2017-10-10T14:00:21.455Z,6.17
2017-10-10T14:02:48.907Z,5.60
2017-10-10T14:05:16.371Z,6.33
2017-10-10T14:07:43.839Z,5.20
2017-10-10T14:10:11.340Z,5.50
2017-10-10T14:12:38.815Z,5.77
2017-10-10T14:15:06.262Z,5.83
2017-10-10T14:17:33.715Z,6.20
2017-10-10T14:20:01.195Z,6.10
2017-10-10T14:22:28.651Z,5.43
2017-10-10T14:24:56.711Z,5.27
2017-10-10T14:27:24.462Z,5.13
2017-10-10T14:29:51.920Z,5.10
2017-10-10T14:32:19.435Z,5.43
2017-10-10T14:34:46.902Z,6.03
2017-10-10T14:37:14.673Z,6.27
2017-10-10T14:39:42.205Z,5.33
2017-10-10T14:42:09.697Z,6.40
2017-10-10T14:44:37.160Z,5.70
2017-10-10T14:47:04.641Z,6.10
2017-10-10T14:49:32.095Z,6.27
2017-10-10T14:51:59.571Z,5.47
2017-10-10T14:54:27.019Z,5.77
2017-10-10T14:56:54.471Z,5.33
2017-10-10T14:59:21.941Z,6.10
2017-10-10T15:01:49.399Z,5.20
2017-10-10T15:04:16.854Z,5.20
2017-10-10T15:06:44.352Z,5.63
2017-10-10T15:09:11.830Z,5.13
2017-10-10T15:11:39.304Z,5.43
2017-10-10T15:14:06.771Z,14.57
2017-10-10T15:16:34.259Z,21.87
2017-10-10T15:19:01.725Z,20.60
2017-10-10T15:21:29.199Z,16.23
2017-10-10T15:23:56.677Z,25.70
2017-10-10T15:26:24.159Z,11.07
2017-10-10T15:28:51.622Z,12.93
2017-10-10T15:31:19.074Z,5.53
2017-10-10T15:33:46.571Z,6.20
2017-10-10T15:36:14.045Z,4.30
2017-10-10T15:38:41.498Z,4.87
2017-10-10T15:41:08.986Z,4.83
2017-10-10T15:43:36.443Z,5.00
2017-10-10T15:46:03.899Z,4.80
2017-10-10T15:48:31.374Z,4.77
2017-10-10T15:50:58.827Z,7.60
2017-10-10T15:53:26.291Z,13.00
2017-10-10T15:55:53.766Z,10.53
2017-10-10T15:58:21.213Z,8.20
2017-10-10T16:00:48.690Z,10.33
2017-10-10T16:03:16.146Z,10.37
2017-10-10T16:05:43.607Z,10.13
2017-10-10T16:08:11.086Z,16.30
2017-10-10T16:10:38.550Z,11.43
2017-10-10T16:13:06.083Z,8.00
2017-10-10T16:15:33.534Z,5.27
2017-10-10T16:18:00.991Z,5.20
2017-10-10T16:20:28.462Z,5.33
2017-10-10T16:22:55.910Z,4.83
2017-10-10T16:25:23.362Z,5.30
2017-10-10T16:27:50.835Z,5.70
2017-10-10T16:30:18.294Z,6.13
2017-10-10T16:32:45.742Z,6.23
2017-10-10T16:35:13.223Z,12.13
2017-10-10T16:37:40.686Z,18.23
2017-10-10T16:40:08.162Z,15.40
2017-10-10T16:42:35.704Z,14.30
2017-10-10T16:45:03.162Z,14.40
2017-10-10T16:47:30.639Z,14.80
2017-10-10T16:49:58.099Z,18.37
2017-10-10T16:52:25.558Z,21.73
2017-10-10T16:54:53.034Z,9.53
2017-10-10T16:57:20.482Z,6.43
2017-10-10T16:59:47.931Z,6.30
2017-10-10T17:02:15.421Z,6.47
2017-10-10T17:04:42.866Z,5.20
2017-10-10T17:07:10.319Z,4.97
2017-10-10T17:09:37.807Z,4.97
2017-10-10T17:12:05.259Z,4.90
2017-10-10T17:14:32.706Z,6.43
2017-10-10T17:17:00.180Z,6.60
2017-10-10T17:19:27.640Z,5.47
2017-10-10T17:21:55.106Z,5.67
2017-10-10T17:24:22.579Z,5.30
2017-10-10T17:26:50.994Z,5.20
2017-10-10T17:29:22.179Z,5.37
2017-10-10T17:31:58.715Z,6.10
2017-10-10T17:34:27.664Z,5.50
2017-10-10T17:36:55.178Z,6.00
2017-10-10T17:39:22.702Z,6.10
2017-10-10T17:41:50.182Z,6.30
2017-10-10T17:44:17.663Z,6.10
2017-10-10T17:46:45.122Z,6.07
2017-10-10T17:49:12.571Z,5.90
2017-10-10T17:51:40.053Z,5.70
2017-10-10T17:54:07.525Z,7.07
2017-10-10T17:56:34.983Z,5.70
2017-10-10T17:59:02.466Z,5.37
2017-10-10T18:01:29.928Z,5.33
2017-10-10T18:03:57.383Z,6.50
2017-10-10T18:06:25.111Z,6.97
2017-10-10T18:08:52.736Z,6.90
2017-10-10T18:11:21.195Z,8.03
2017-10-10T18:13:48.771Z,6.60
2017-10-10T18:16:16.230Z,7.50
2017-10-10T18:18:43.702Z,6.83
2017-10-10T18:21:11.181Z,7.63
2017-10-10T18:23:38.896Z,7.57
2017-10-10T18:26:06.506Z,7.47
2017-10-10T18:28:34.058Z,7.13
2017-10-10T18:31:01.703Z,7.07
2017-10-10T18:33:29.254Z,7.10
2017-10-10T18:35:57.152Z,7.80
2017-10-10T18:38:25.251Z,8.30
2017-10-10T18:40:53.082Z,8.43
2017-10-10T18:43:21.131Z,7.23
2017-10-10T18:45:48.966Z,8.90
2017-10-10T18:48:17.027Z,8.33
2017-10-10T18:50:45.342Z,8.00
2017-10-10T18:53:13.509Z,7.37
2017-10-10T18:55:41.598Z,7.60
2017-10-10T18:58:10.112Z,7.77
2017-10-10T19:00:38.629Z,7.63
2017-10-10T19:03:07.127Z,6.80
2017-10-10T19:05:35.618Z,6.80
2017-10-10T19:08:04.021Z,7.67
2017-10-10T19:10:32.399Z,7.40
2017-10-10T19:13:00.757Z,6.40
2017-10-10T19:15:29.235Z,8.10
2017-10-10T19:17:57.558Z,7.40
2017-10-10T19:20:26.034Z,7.37
2017-10-10T19:22:54.566Z,6.97
2017-10-10T19:25:23.085Z,6.67
2017-10-10T19:27:51.963Z,6.53
2017-10-10T19:30:20.417Z,6.40
2017-10-10T19:32:48.784Z,6.90
2017-10-10T19:35:17.197Z,6.63
2017-10-10T19:37:45.523Z,6.53
2017-10-10T19:40:13.807Z,6.70
2017-10-10T19:42:41.822Z,6.63
2017-10-10T19:45:10.189Z,6.53
2017-10-10T19:47:38.584Z,6.53
2017-10-10T19:50:06.929Z,5.73
2017-10-10T19:52:35.165Z,6.87
2017-10-10T19:55:03.135Z,6.73
2017-10-10T19:57:31.076Z,6.53
2017-10-10T19:59:58.900Z,6.40
2017-10-10T20:02:27.511Z,6.40
2017-10-10T20:04:55.075Z,7.30
2017-10-10T20:07:22.568Z,6.30
2017-10-10T20:09:50.114Z,6.17
2017-10-10T20:12:17.685Z,7.47
2017-10-10T20:14:45.336Z,8.07
2017-10-10T20:17:12.831Z,8.03
2017-10-10T20:19:40.343Z,7.90
2017-10-10T20:22:07.858Z,7.47
2017-10-10T20:24:35.293Z,7.47
2017-10-10T20:27:02.790Z,8.10
2017-10-10T20:29:30.281Z,8.60
2017-10-10T20:31:57.777Z,8.23
2017-10-10T20:34:25.234Z,8.00
2017-10-10T20:36:52.711Z,7.23
2017-10-10T20:39:20.166Z,8.10
2017-10-10T20:41:47.630Z,8.30
2017-10-10T20:44:15.147Z,7.53
2017-10-10T20:46:42.602Z,7.60
2017-10-10T20:49:10.056Z,7.90
2017-10-10T20:51:37.526Z,8.00
2017-10-10T20:54:05.002Z,9.90
2017-10-10T20:56:32.454Z,8.63
2017-10-10T20:58:59.902Z,8.20
2017-10-10T21:01:27.375Z,9.17
2017-10-10T21:03:54.837Z,8.40
2017-10-10T21:06:22.404Z,9.60
2017-10-10T21:08:49.865Z,9.00
2017-10-10T21:11:17.331Z,7.93
2017-10-10T21:13:44.827Z,8.20
2017-10-10T21:16:12.275Z,7.60
2017-10-10T21:18:39.726Z,7.70
2017-10-10T21:21:07.224Z,8.83
2017-10-10T21:23:34.705Z,7.67
2017-10-10T21:26:02.166Z,8.00
2017-10-10T21:28:29.650Z,7.80
2017-10-10T21:30:57.101Z,9.50
2017-10-10T21:33:24.550Z,8.80
2017-10-10T21:35:52.101Z,7.13
2017-10-10T21:38:19.575Z,8.13
2017-10-10T21:40:47.046Z,8.20
2017-10-10T21:43:14.528Z,7.50
2017-10-10T21:45:41.982Z,7.30
2017-10-10T21:48:09.454Z,8.13
2017-10-10T21:50:36.938Z,8.20
2017-10-10T21:53:04.407Z,7.50
2017-10-10T21:55:31.855Z,7.53
2017-10-10T21:57:59.330Z,8.20
2017-10-10T22:00:26.807Z,8.70
2017-10-10T22:02:54.258Z,8.93
2017-10-10T22:05:21.711Z,8.73
2017-10-10T22:07:49.182Z,8.97
2017-10-10T22:10:16.643Z,7.90
2017-10-10T22:12:44.097Z,7.97
2017-10-10T22:15:11.574Z,8.33
2017-10-10T22:17:39.026Z,8.90
2017-10-10T22:20:06.478Z,9.30
2017-10-10T22:22:33.943Z,9.03
2017-10-10T22:25:01.394Z,8.80
2017-10-10T22:27:28.866Z,8.10
2017-10-10T22:29:56.330Z,8.97
2017-10-10T22:32:23.791Z,8.03
2017-10-10T22:34:51.263Z,8.43
2017-10-10T22:37:18.715Z,8.53
2017-10-10T22:39:46.196Z,8.70
2017-10-10T22:42:13.650Z,9.00
2017-10-10T22:44:41.102Z,9.57
2017-10-10T22:47:08.574Z,9.50
2017-10-10T22:49:36.032Z,8.63
2017-10-10T22:52:03.525Z,7.63
2017-10-10T22:54:30.978Z,8.90
2017-10-10T22:56:58.438Z,8.80
2017-10-10T22:59:25.911Z,8.57
2017-10-10T23:01:53.546Z,8.83
2017-10-10T23:04:21.039Z,8.70
2017-10-10T23:06:48.519Z,9.03
2017-10-10T23:09:15.970Z,8.90
2017-10-10T23:11:43.418Z,8.37
2017-10-10T23:14:10.890Z,7.73
2017-10-10T23:16:38.339Z,8.17
2017-10-10T23:19:05.810Z,8.00
2017-10-10T23:21:33.258Z,8.03
2017-10-10T23:24:00.705Z,7.60
2017-10-10T23:26:28.184Z,7.70
2017-10-10T23:28:55.638Z,8.73
2017-10-10T23:31:23.107Z,7.00
2017-10-10T23:33:50.615Z,8.07
2017-10-10T23:36:18.068Z,9.50
2017-10-10T23:38:45.523Z,7.50
2017-10-10T23:41:12.999Z,7.50
2017-10-10T23:43:40.450Z,7.30
2017-10-10T23:46:07.911Z,8.70
2017-10-10T23:48:35.389Z,8.07
2017-10-10T23:51:02.838Z,7.57
2017-10-10T23:53:30.294Z,8.10
2017-10-10T23:55:57.775Z,7.70
2017-10-10T23:58:25.222Z,8.17
